sensor_id;sensor_type;location;lat;lon;timestamp;P1;durP1;ratioP1;P2;durP2;ratioP2
54735;SDS011;40632;51.442;11.936;2022-08-19T00:01:25;55.85;;;37.92;;
54735;SDS011;40632;51.442;11.936;2022-08-19T00:03:51;57.83;;;38.65;;
54735;SDS011;40632;51.442;11.936;2022-08-19T00:06:17;54.05;;;38.17;;
54735;SDS011;40632;51.442;11.936;2022-08-19T00:08:42;47.42;;;35.90;;
54735;SDS011;40632;51.442;11.936;2022-08-19T00:11:09;54.08;;;35.30;;
54735;SDS011;40632;51.442;11.936;2022-08-19T00:13:34;47.78;;;34.05;;
54735;SDS011;40632;51.442;11.936;2022-08-19T00:16:01;45.63;;;34.83;;
54735;SDS011;40632;51.442;11.936;2022-08-19T00:18:30;67.05;;;37.97;;
54735;SDS011;40632;51.442;11.936;2022-08-19T00:20:56;53.13;;;36.72;;
54735;SDS011;40632;51.442;11.936;2022-08-19T00:23:22;48.58;;;34.80;;
54735;SDS011;40632;51.442;11.936;2022-08-19T00:25:47;57.33;;;39.13;;
54735;SDS011;40632;51.442;11.936;2022-08-19T00:28:13;64.78;;;39.92;;
54735;SDS011;40632;51.442;11.936;2022-08-19T00:30:38;69.43;;;44.33;;
54735;SDS011;40632;51.442;11.936;2022-08-19T00:33:04;62.35;;;43.53;;
54735;SDS011;40632;51.442;11.936;2022-08-19T00:35:32;67.07;;;41.58;;
54735;SDS011;40632;51.442;11.936;2022-08-19T00:37:58;70.80;;;41.85;;
54735;SDS011;40632;51.442;11.936;2022-08-19T00:40:23;72.13;;;42.20;;
54735;SDS011;40632;51.442;11.936;2022-08-19T00:42:49;68.53;;;41.83;;
54735;SDS011;40632;51.442;11.936;2022-08-19T00:45:16;67.38;;;43.13;;
54735;SDS011;40632;51.442;11.936;2022-08-19T00:47:44;68.57;;;41.35;;
54735;SDS011;40632;51.442;11.936;2022-08-19T00:50:10;62.63;;;39.70;;
54735;SDS011;40632;51.442;11.936;2022-08-19T00:52:41;64.85;;;40.05;;
54735;SDS011;40632;51.442;11.936;2022-08-19T00:55:08;76.22;;;42.95;;
54735;SDS011;40632;51.442;11.936;2022-08-19T00:57:35;78.65;;;46.67;;
54735;SDS011;40632;51.442;11.936;2022-08-19T01:00:04;72.15;;;41.28;;
54735;SDS011;40632;51.442;11.936;2022-08-19T01:02:32;75.32;;;42.70;;
54735;SDS011;40632;51.442;11.936;2022-08-19T01:04:57;82.25;;;46.58;;
54735;SDS011;40632;51.442;11.936;2022-08-19T01:07:25;74.28;;;42.58;;
54735;SDS011;40632;51.442;11.936;2022-08-19T01:09:53;80.55;;;48.17;;
54735;SDS011;40632;51.442;11.936;2022-08-19T01:12:19;79.18;;;44.47;;
54735;SDS011;40632;51.442;11.936;2022-08-19T01:14:45;73.18;;;44.92;;
54735;SDS011;40632;51.442;11.936;2022-08-19T01:17:12;80.57;;;49.38;;
54735;SDS011;40632;51.442;11.936;2022-08-19T01:19:41;80.30;;;45.60;;
54735;SDS011;40632;51.442;11.936;2022-08-19T01:22:10;80.97;;;44.40;;
54735;SDS011;40632;51.442;11.936;2022-08-19T01:24:42;100.28;;;50.15;;
54735;SDS011;40632;51.442;11.936;2022-08-19T01:27:08;95.53;;;49.40;;
54735;SDS011;40632;51.442;11.936;2022-08-19T01:29:34;96.07;;;50.47;;
54735;SDS011;40632;51.442;11.936;2022-08-19T01:32:03;95.60;;;49.78;;
54735;SDS011;40632;51.442;11.936;2022-08-19T01:34:28;104.50;;;54.22;;
54735;SDS011;40632;51.442;11.936;2022-08-19T01:36:54;105.53;;;49.53;;
54735;SDS011;40632;51.442;11.936;2022-08-19T01:39:20;105.63;;;57.50;;
54735;SDS011;40632;51.442;11.936;2022-08-19T01:41:50;107.43;;;52.78;;
54735;SDS011;40632;51.442;11.936;2022-08-19T01:44:17;116.53;;;57.15;;
54735;SDS011;40632;51.442;11.936;2022-08-19T01:46:43;116.43;;;62.45;;
54735;SDS011;40632;51.442;11.936;2022-08-19T01:49:09;114.78;;;60.67;;
54735;SDS011;40632;51.442;11.936;2022-08-19T01:51:35;130.07;;;65.63;;
54735;SDS011;40632;51.442;11.936;2022-08-19T01:54:02;123.53;;;65.00;;
54735;SDS011;40632;51.442;11.936;2022-08-19T01:56:28;128.98;;;61.17;;
54735;SDS011;40632;51.442;11.936;2022-08-19T01:58:57;118.40;;;60.70;;
54735;SDS011;40632;51.442;11.936;2022-08-19T02:01:27;120.10;;;63.88;;
54735;SDS011;40632;51.442;11.936;2022-08-19T02:03:52;126.93;;;61.25;;
54735;SDS011;40632;51.442;11.936;2022-08-19T02:06:18;118.72;;;63.00;;
54735;SDS011;40632;51.442;11.936;2022-08-19T02:08:44;119.15;;;58.53;;
54735;SDS011;40632;51.442;11.936;2022-08-19T02:11:17;122.20;;;57.75;;
54735;SDS011;40632;51.442;11.936;2022-08-19T02:13:44;110.90;;;55.95;;
54735;SDS011;40632;51.442;11.936;2022-08-19T02:16:12;102.63;;;49.67;;
54735;SDS011;40632;51.442;11.936;2022-08-19T02:18:38;99.95;;;51.58;;
54735;SDS011;40632;51.442;11.936;2022-08-19T02:21:04;103.40;;;52.30;;
54735;SDS011;40632;51.442;11.936;2022-08-19T02:23:29;99.43;;;51.50;;
54735;SDS011;40632;51.442;11.936;2022-08-19T02:25:56;102.07;;;53.78;;
54735;SDS011;40632;51.442;11.936;2022-08-19T02:28:22;98.95;;;51.38;;
54735;SDS011;40632;51.442;11.936;2022-08-19T02:30:47;101.53;;;52.15;;
54735;SDS011;40632;51.442;11.936;2022-08-19T02:33:16;88.10;;;50.60;;
54735;SDS011;40632;51.442;11.936;2022-08-19T02:35:42;95.40;;;53.92;;
54735;SDS011;40632;51.442;11.936;2022-08-19T02:38:07;91.75;;;50.58;;
54735;SDS011;40632;51.442;11.936;2022-08-19T02:40:33;105.18;;;58.60;;
54735;SDS011;40632;51.442;11.936;2022-08-19T02:42:59;105.82;;;57.22;;
54735;SDS011;40632;51.442;11.936;2022-08-19T02:45:24;101.18;;;55.05;;
54735;SDS011;40632;51.442;11.936;2022-08-19T02:47:50;115.03;;;62.78;;
54735;SDS011;40632;51.442;11.936;2022-08-19T02:50:18;106.22;;;55.28;;
54735;SDS011;40632;51.442;11.936;2022-08-19T02:52:44;101.60;;;52.30;;
54735;SDS011;40632;51.442;11.936;2022-08-19T02:55:10;112.88;;;60.13;;
54735;SDS011;40632;51.442;11.936;2022-08-19T02:57:35;102.22;;;57.53;;
54735;SDS011;40632;51.442;11.936;2022-08-19T03:00:03;109.70;;;60.83;;
54735;SDS011;40632;51.442;11.936;2022-08-19T03:02:29;103.43;;;54.38;;
54735;SDS011;40632;51.442;11.936;2022-08-19T03:04:55;105.65;;;56.28;;
54735;SDS011;40632;51.442;11.936;2022-08-19T03:07:23;108.72;;;60.55;;
54735;SDS011;40632;51.442;11.936;2022-08-19T03:09:49;113.80;;;62.58;;
54735;SDS011;40632;51.442;11.936;2022-08-19T03:12:14;115.25;;;58.95;;
54735;SDS011;40632;51.442;11.936;2022-08-19T03:14:40;117.00;;;69.57;;
54735;SDS011;40632;51.442;11.936;2022-08-19T03:17:06;110.68;;;62.65;;
54735;SDS011;40632;51.442;11.936;2022-08-19T03:19:31;115.20;;;64.55;;
54735;SDS011;40632;51.442;11.936;2022-08-19T03:21:57;103.57;;;61.95;;
54735;SDS011;40632;51.442;11.936;2022-08-19T03:24:25;102.45;;;59.00;;
54735;SDS011;40632;51.442;11.936;2022-08-19T03:26:52;106.80;;;64.57;;
54735;SDS011;40632;51.442;11.936;2022-08-19T03:29:19;84.50;;;52.45;;
54735;SDS011;40632;51.442;11.936;2022-08-19T03:31:45;88.60;;;56.90;;
54735;SDS011;40632;51.442;11.936;2022-08-19T03:34:11;87.47;;;54.72;;
54735;SDS011;40632;51.442;11.936;2022-08-19T03:36:40;85.13;;;54.90;;
54735;SDS011;40632;51.442;11.936;2022-08-19T03:39:06;82.35;;;54.28;;
54735;SDS011;40632;51.442;11.936;2022-08-19T03:41:36;79.63;;;50.78;;
54735;SDS011;40632;51.442;11.936;2022-08-19T03:44:03;83.18;;;50.60;;
54735;SDS011;40632;51.442;11.936;2022-08-19T03:46:29;82.57;;;52.67;;
54735;SDS011;40632;51.442;11.936;2022-08-19T03:48:57;88.28;;;53.67;;
54735;SDS011;40632;51.442;11.936;2022-08-19T03:51:25;80.72;;;52.20;;
54735;SDS011;40632;51.442;11.936;2022-08-19T03:53:53;70.40;;;47.72;;
54735;SDS011;40632;51.442;11.936;2022-08-19T03:56:20;72.40;;;49.90;;
54735;SDS011;40632;51.442;11.936;2022-08-19T03:58:49;77.05;;;52.03;;
54735;SDS011;40632;51.442;11.936;2022-08-19T04:01:15;80.97;;;52.80;;
54735;SDS011;40632;51.442;11.936;2022-08-19T04:03:44;83.28;;;54.60;;
54735;SDS011;40632;51.442;11.936;2022-08-19T04:06:10;87.18;;;54.35;;
54735;SDS011;40632;51.442;11.936;2022-08-19T04:08:37;87.63;;;55.15;;
54735;SDS011;40632;51.442;11.936;2022-08-19T04:11:06;90.47;;;57.15;;
54735;SDS011;40632;51.442;11.936;2022-08-19T04:13:32;89.00;;;56.85;;
54735;SDS011;40632;51.442;11.936;2022-08-19T04:16:01;93.85;;;56.63;;
54735;SDS011;40632;51.442;11.936;2022-08-19T04:18:27;89.72;;;56.33;;
54735;SDS011;40632;51.442;11.936;2022-08-19T04:20:53;90.03;;;56.70;;
54735;SDS011;40632;51.442;11.936;2022-08-19T04:23:18;83.82;;;55.08;;
54735;SDS011;40632;51.442;11.936;2022-08-19T04:25:44;83.22;;;54.80;;
54735;SDS011;40632;51.442;11.936;2022-08-19T04:28:11;79.45;;;50.85;;
54735;SDS011;40632;51.442;11.936;2022-08-19T04:30:38;82.43;;;53.72;;
54735;SDS011;40632;51.442;11.936;2022-08-19T04:33:07;87.20;;;54.58;;
54735;SDS011;40632;51.442;11.936;2022-08-19T04:35:37;80.95;;;53.75;;
54735;SDS011;40632;51.442;11.936;2022-08-19T04:38:04;76.72;;;50.17;;
54735;SDS011;40632;51.442;11.936;2022-08-19T04:40:30;78.97;;;51.55;;
54735;SDS011;40632;51.442;11.936;2022-08-19T04:42:56;71.68;;;50.15;;
54735;SDS011;40632;51.442;11.936;2022-08-19T04:45:21;70.95;;;48.72;;
54735;SDS011;40632;51.442;11.936;2022-08-19T04:47:47;73.68;;;50.13;;
54735;SDS011;40632;51.442;11.936;2022-08-19T04:50:15;70.10;;;46.08;;
54735;SDS011;40632;51.442;11.936;2022-08-19T04:52:41;60.30;;;43.28;;
54735;SDS011;40632;51.442;11.936;2022-08-19T04:55:07;63.83;;;44.05;;
54735;SDS011;40632;51.442;11.936;2022-08-19T04:57:33;61.47;;;43.78;;
54735;SDS011;40632;51.442;11.936;2022-08-19T04:59:59;57.75;;;41.05;;
54735;SDS011;40632;51.442;11.936;2022-08-19T05:02:24;55.22;;;41.72;;
54735;SDS011;40632;51.442;11.936;2022-08-19T05:04:50;55.25;;;42.00;;
54735;SDS011;40632;51.442;11.936;2022-08-19T05:07:18;54.83;;;40.53;;
54735;SDS011;40632;51.442;11.936;2022-08-19T05:09:44;54.45;;;42.25;;
54735;SDS011;40632;51.442;11.936;2022-08-19T05:12:09;50.55;;;37.95;;
54735;SDS011;40632;51.442;11.936;2022-08-19T05:14:35;51.10;;;39.22;;
54735;SDS011;40632;51.442;11.936;2022-08-19T05:17:00;49.25;;;37.35;;
54735;SDS011;40632;51.442;11.936;2022-08-19T05:19:26;48.65;;;37.63;;
54735;SDS011;40632;51.442;11.936;2022-08-19T05:21:52;45.80;;;35.78;;
54735;SDS011;40632;51.442;11.936;2022-08-19T05:24:21;44.70;;;34.13;;
54735;SDS011;40632;51.442;11.936;2022-08-19T05:26:48;39.45;;;33.85;;
54735;SDS011;40632;51.442;11.936;2022-08-19T05:29:16;44.92;;;34.28;;
54735;SDS011;40632;51.442;11.936;2022-08-19T05:31:44;42.45;;;33.05;;
54735;SDS011;40632;51.442;11.936;2022-08-19T05:34:11;44.63;;;33.58;;
54735;SDS011;40632;51.442;11.936;2022-08-19T05:36:38;39.45;;;32.70;;
54735;SDS011;40632;51.442;11.936;2022-08-19T05:39:06;41.72;;;31.23;;
54735;SDS011;40632;51.442;11.936;2022-08-19T05:41:35;44.13;;;32.35;;
54735;SDS011;40632;51.442;11.936;2022-08-19T05:44:01;43.67;;;31.55;;
54735;SDS011;40632;51.442;11.936;2022-08-19T05:46:29;39.03;;;28.90;;
54735;SDS011;40632;51.442;11.936;2022-08-19T05:48:55;34.67;;;27.85;;
54735;SDS011;40632;51.442;11.936;2022-08-19T05:51:20;34.42;;;29.70;;
54735;SDS011;40632;51.442;11.936;2022-08-19T05:53:46;35.05;;;27.25;;
54735;SDS011;40632;51.442;11.936;2022-08-19T05:56:13;33.90;;;27.05;;
54735;SDS011;40632;51.442;11.936;2022-08-19T05:58:44;34.55;;;27.05;;
54735;SDS011;40632;51.442;11.936;2022-08-19T06:01:11;31.83;;;23.88;;
54735;SDS011;40632;51.442;11.936;2022-08-19T06:03:38;28.10;;;24.55;;
54735;SDS011;40632;51.442;11.936;2022-08-19T06:06:04;34.03;;;24.50;;
54735;SDS011;40632;51.442;11.936;2022-08-19T06:08:30;30.70;;;22.98;;
54735;SDS011;40632;51.442;11.936;2022-08-19T06:10:56;29.17;;;23.23;;
54735;SDS011;40632;51.442;11.936;2022-08-19T06:13:22;27.58;;;24.17;;
54735;SDS011;40632;51.442;11.936;2022-08-19T06:15:50;30.05;;;22.85;;
54735;SDS011;40632;51.442;11.936;2022-08-19T06:18:16;24.20;;;19.50;;
54735;SDS011;40632;51.442;11.936;2022-08-19T06:20:41;24.30;;;17.83;;
54735;SDS011;40632;51.442;11.936;2022-08-19T06:23:07;26.35;;;18.70;;
54735;SDS011;40632;51.442;11.936;2022-08-19T06:25:33;24.42;;;19.15;;
54735;SDS011;40632;51.442;11.936;2022-08-19T06:27:59;20.92;;;17.58;;
54735;SDS011;40632;51.442;11.936;2022-08-19T06:30:25;19.42;;;17.10;;
54735;SDS011;40632;51.442;11.936;2022-08-19T06:32:53;21.63;;;16.17;;
54735;SDS011;40632;51.442;11.936;2022-08-19T06:35:19;20.80;;;16.92;;
54735;SDS011;40632;51.442;11.936;2022-08-19T06:37:45;19.80;;;17.05;;
54735;SDS011;40632;51.442;11.936;2022-08-19T06:40:11;19.92;;;15.95;;
54735;SDS011;40632;51.442;11.936;2022-08-19T06:42:37;19.98;;;15.75;;
54735;SDS011;40632;51.442;11.936;2022-08-19T06:45:03;21.85;;;17.05;;
54735;SDS011;40632;51.442;11.936;2022-08-19T06:47:29;21.50;;;15.90;;
54735;SDS011;40632;51.442;11.936;2022-08-19T06:49:58;20.80;;;16.35;;
54735;SDS011;40632;51.442;11.936;2022-08-19T06:52:25;20.83;;;15.80;;
54735;SDS011;40632;51.442;11.936;2022-08-19T06:54:50;23.02;;;15.80;;
54735;SDS011;40632;51.442;11.936;2022-08-19T06:57:16;23.17;;;17.42;;
54735;SDS011;40632;51.442;11.936;2022-08-19T06:59:41;22.50;;;18.15;;
54735;SDS011;40632;51.442;11.936;2022-08-19T07:02:07;21.88;;;16.13;;
54735;SDS011;40632;51.442;11.936;2022-08-19T07:04:34;18.23;;;14.90;;
54735;SDS011;40632;51.442;11.936;2022-08-19T07:07:04;18.58;;;16.67;;
54735;SDS011;40632;51.442;11.936;2022-08-19T07:09:31;19.90;;;17.77;;
54735;SDS011;40632;51.442;11.936;2022-08-19T07:11:57;22.98;;;17.88;;
54735;SDS011;40632;51.442;11.936;2022-08-19T07:14:23;23.65;;;17.70;;
54735;SDS011;40632;51.442;11.936;2022-08-19T07:16:50;18.95;;;16.95;;
54735;SDS011;40632;51.442;11.936;2022-08-19T07:19:17;21.15;;;16.42;;
54735;SDS011;40632;51.442;11.936;2022-08-19T07:21:44;24.85;;;17.73;;
54735;SDS011;40632;51.442;11.936;2022-08-19T07:24:15;21.00;;;18.20;;
54735;SDS011;40632;51.442;11.936;2022-08-19T07:26:41;28.05;;;17.77;;
54735;SDS011;40632;51.442;11.936;2022-08-19T07:29:08;25.55;;;16.70;;
54735;SDS011;40632;51.442;11.936;2022-08-19T07:31:35;20.80;;;18.17;;
54735;SDS011;40632;51.442;11.936;2022-08-19T07:34:01;19.92;;;17.83;;
54735;SDS011;40632;51.442;11.936;2022-08-19T07:36:28;21.42;;;17.38;;
54735;SDS011;40632;51.442;11.936;2022-08-19T07:38:53;21.67;;;17.75;;
54735;SDS011;40632;51.442;11.936;2022-08-19T07:41:23;18.52;;;16.63;;
54735;SDS011;40632;51.442;11.936;2022-08-19T07:43:51;19.92;;;15.57;;
54735;SDS011;40632;51.442;11.936;2022-08-19T07:46:18;21.63;;;15.73;;
54735;SDS011;40632;51.442;11.936;2022-08-19T07:48:44;21.70;;;16.30;;
54735;SDS011;40632;51.442;11.936;2022-08-19T07:51:10;20.30;;;16.45;;
54735;SDS011;40632;51.442;11.936;2022-08-19T07:53:37;22.92;;;16.98;;
54735;SDS011;40632;51.442;11.936;2022-08-19T07:56:03;20.83;;;15.02;;
54735;SDS011;40632;51.442;11.936;2022-08-19T07:58:33;18.08;;;16.02;;
54735;SDS011;40632;51.442;11.936;2022-08-19T08:01:02;20.45;;;15.38;;
54735;SDS011;40632;51.442;11.936;2022-08-19T08:03:29;20.58;;;14.90;;
54735;SDS011;40632;51.442;11.936;2022-08-19T08:05:55;18.20;;;14.75;;
54735;SDS011;40632;51.442;11.936;2022-08-19T08:08:20;20.77;;;14.05;;
54735;SDS011;40632;51.442;11.936;2022-08-19T08:10:46;16.25;;;14.13;;
54735;SDS011;40632;51.442;11.936;2022-08-19T08:13:11;16.52;;;13.13;;
54735;SDS011;40632;51.442;11.936;2022-08-19T08:15:40;17.83;;;13.18;;
54735;SDS011;40632;51.442;11.936;2022-08-19T08:18:05;18.10;;;13.32;;
54735;SDS011;40632;51.442;11.936;2022-08-19T08:20:31;18.35;;;12.93;;
54735;SDS011;40632;51.442;11.936;2022-08-19T08:22:56;17.30;;;12.60;;
54735;SDS011;40632;51.442;11.936;2022-08-19T08:25:23;18.20;;;12.98;;
54735;SDS011;40632;51.442;11.936;2022-08-19T08:27:49;16.80;;;13.30;;
54735;SDS011;40632;51.442;11.936;2022-08-19T08:30:16;19.52;;;12.38;;
54735;SDS011;40632;51.442;11.936;2022-08-19T08:32:47;16.40;;;12.88;;
54735;SDS011;40632;51.442;11.936;2022-08-19T08:35:13;14.77;;;13.10;;
54735;SDS011;40632;51.442;11.936;2022-08-19T08:37:44;15.77;;;11.88;;
54735;SDS011;40632;51.442;11.936;2022-08-19T08:40:19;19.98;;;13.02;;
54735;SDS011;40632;51.442;11.936;2022-08-19T08:42:49;16.65;;;12.45;;
54735;SDS011;40632;51.442;11.936;2022-08-19T08:45:19;13.90;;;12.18;;
54735;SDS011;40632;51.442;11.936;2022-08-19T08:47:49;14.30;;;11.13;;
54735;SDS011;40632;51.442;11.936;2022-08-19T08:50:20;12.85;;;10.88;;
54735;SDS011;40632;51.442;11.936;2022-08-19T08:52:50;13.05;;;10.57;;
54735;SDS011;40632;51.442;11.936;2022-08-19T08:55:19;16.20;;;10.73;;
54735;SDS011;40632;51.442;11.936;2022-08-19T08:57:50;11.23;;;10.02;;
54735;SDS011;40632;51.442;11.936;2022-08-19T09:00:19;13.98;;;10.57;;
54735;SDS011;40632;51.442;11.936;2022-08-19T09:02:49;14.57;;;11.05;;
54735;SDS011;40632;51.442;11.936;2022-08-19T09:05:15;14.55;;;11.60;;
54735;SDS011;40632;51.442;11.936;2022-08-19T09:07:43;16.95;;;13.13;;
54735;SDS011;40632;51.442;11.936;2022-08-19T09:10:17;14.35;;;12.80;;
54735;SDS011;40632;51.442;11.936;2022-08-19T09:12:52;17.67;;;14.57;;
54735;SDS011;40632;51.442;11.936;2022-08-19T09:15:28;21.38;;;13.60;;
54735;SDS011;40632;51.442;11.936;2022-08-19T09:18:02;15.25;;;13.75;;
54735;SDS011;40632;51.442;11.936;2022-08-19T09:20:29;15.32;;;13.60;;
54735;SDS011;40632;51.442;11.936;2022-08-19T09:22:55;17.80;;;14.40;;
54735;SDS011;40632;51.442;11.936;2022-08-19T09:25:21;17.25;;;13.35;;
54735;SDS011;40632;51.442;11.936;2022-08-19T09:27:48;15.77;;;14.18;;
54735;SDS011;40632;51.442;11.936;2022-08-19T09:30:16;17.85;;;13.98;;
54735;SDS011;40632;51.442;11.936;2022-08-19T09:32:43;17.45;;;14.18;;
54735;SDS011;40632;51.442;11.936;2022-08-19T09:35:13;17.13;;;12.82;;
54735;SDS011;40632;51.442;11.936;2022-08-19T09:37:39;17.25;;;13.50;;
54735;SDS011;40632;51.442;11.936;2022-08-19T09:40:05;18.45;;;14.00;;
54735;SDS011;40632;51.442;11.936;2022-08-19T09:42:32;17.30;;;14.60;;
54735;SDS011;40632;51.442;11.936;2022-08-19T09:44:58;17.20;;;13.88;;
54735;SDS011;40632;51.442;11.936;2022-08-19T09:47:23;15.75;;;12.80;;
54735;SDS011;40632;51.442;11.936;2022-08-19T09:49:49;15.70;;;13.95;;
54735;SDS011;40632;51.442;11.936;2022-08-19T09:52:17;13.95;;;11.32;;
54735;SDS011;40632;51.442;11.936;2022-08-19T09:54:43;13.93;;;11.63;;
54735;SDS011;40632;51.442;11.936;2022-08-19T09:57:08;16.08;;;11.85;;
54735;SDS011;40632;51.442;11.936;2022-08-19T09:59:34;15.32;;;12.38;;
54735;SDS011;40632;51.442;11.936;2022-08-19T10:02:00;12.93;;;10.68;;
54735;SDS011;40632;51.442;11.936;2022-08-19T10:04:26;15.68;;;11.68;;
54735;SDS011;40632;51.442;11.936;2022-08-19T10:06:54;13.68;;;11.48;;
54735;SDS011;40632;51.442;11.936;2022-08-19T10:09:23;12.57;;;10.93;;
54735;SDS011;40632;51.442;11.936;2022-08-19T10:11:48;12.43;;;11.07;;
54735;SDS011;40632;51.442;11.936;2022-08-19T10:14:14;10.85;;;9.52;;
54735;SDS011;40632;51.442;11.936;2022-08-19T10:16:40;13.95;;;11.38;;
54735;SDS011;40632;51.442;11.936;2022-08-19T10:19:06;17.60;;;11.30;;
54735;SDS011;40632;51.442;11.936;2022-08-19T10:21:32;12.48;;;11.18;;
54735;SDS011;40632;51.442;11.936;2022-08-19T10:23:59;16.77;;;11.98;;
54735;SDS011;40632;51.442;11.936;2022-08-19T10:26:31;17.95;;;13.18;;
54735;SDS011;40632;51.442;11.936;2022-08-19T10:28:58;15.40;;;13.00;;
54735;SDS011;40632;51.442;11.936;2022-08-19T10:31:25;15.63;;;12.13;;
54735;SDS011;40632;51.442;11.936;2022-08-19T10:33:52;15.30;;;13.77;;
54735;SDS011;40632;51.442;11.936;2022-08-19T10:36:18;15.80;;;13.13;;
54735;SDS011;40632;51.442;11.936;2022-08-19T10:38:46;11.98;;;10.68;;
54735;SDS011;40632;51.442;11.936;2022-08-19T10:41:16;10.77;;;9.52;;
54735;SDS011;40632;51.442;11.936;2022-08-19T10:43:45;10.85;;;8.77;;
54735;SDS011;40632;51.442;11.936;2022-08-19T10:46:12;12.25;;;10.18;;
54735;SDS011;40632;51.442;11.936;2022-08-19T10:48:40;13.45;;;9.38;;
54735;SDS011;40632;51.442;11.936;2022-08-19T10:51:06;13.35;;;10.60;;
54735;SDS011;40632;51.442;11.936;2022-08-19T10:53:32;11.55;;;10.35;;
54735;SDS011;40632;51.442;11.936;2022-08-19T10:55:58;11.05;;;10.00;;
54735;SDS011;40632;51.442;11.936;2022-08-19T10:58:23;12.65;;;10.40;;
54735;SDS011;40632;51.442;11.936;2022-08-19T11:00:54;11.18;;;9.88;;
54735;SDS011;40632;51.442;11.936;2022-08-19T11:03:21;13.32;;;10.50;;
54735;SDS011;40632;51.442;11.936;2022-08-19T11:05:51;12.52;;;11.30;;
54735;SDS011;40632;51.442;11.936;2022-08-19T11:08:23;13.13;;;10.48;;
54735;SDS011;40632;51.442;11.936;2022-08-19T11:10:48;15.95;;;12.07;;
54735;SDS011;40632;51.442;11.936;2022-08-19T11:13:14;13.98;;;12.65;;
54735;SDS011;40632;51.442;11.936;2022-08-19T11:15:39;15.00;;;11.57;;
54735;SDS011;40632;51.442;11.936;2022-08-19T11:18:07;16.02;;;12.55;;
54735;SDS011;40632;51.442;11.936;2022-08-19T11:20:33;13.95;;;12.13;;
54735;SDS011;40632;51.442;11.936;2022-08-19T11:22:59;13.07;;;11.73;;
54735;SDS011;40632;51.442;11.936;2022-08-19T11:25:24;13.10;;;11.70;;
54735;SDS011;40632;51.442;11.936;2022-08-19T11:27:50;12.00;;;10.63;;
54735;SDS011;40632;51.442;11.936;2022-08-19T11:30:15;12.88;;;10.35;;
54735;SDS011;40632;51.442;11.936;2022-08-19T11:32:41;13.52;;;11.27;;
54735;SDS011;40632;51.442;11.936;2022-08-19T11:35:10;12.45;;;10.43;;
54735;SDS011;40632;51.442;11.936;2022-08-19T11:37:35;11.88;;;10.23;;
54735;SDS011;40632;51.442;11.936;2022-08-19T11:40:01;13.35;;;10.90;;
54735;SDS011;40632;51.442;11.936;2022-08-19T11:42:27;12.55;;;9.93;;
54735;SDS011;40632;51.442;11.936;2022-08-19T11:44:53;12.65;;;9.70;;
54735;SDS011;40632;51.442;11.936;2022-08-19T11:47:19;10.85;;;9.75;;
54735;SDS011;40632;51.442;11.936;2022-08-19T11:49:45;10.40;;;9.30;;
54735;SDS011;40632;51.442;11.936;2022-08-19T11:52:13;11.02;;;9.85;;
54735;SDS011;40632;51.442;11.936;2022-08-19T11:54:39;11.95;;;10.63;;
54735;SDS011;40632;51.442;11.936;2022-08-19T11:57:04;13.68;;;9.52;;
54735;SDS011;40632;51.442;11.936;2022-08-19T11:59:30;9.82;;;8.82;;
54735;SDS011;40632;51.442;11.936;2022-08-19T12:01:55;9.20;;;7.90;;
54735;SDS011;40632;51.442;11.936;2022-08-19T12:04:21;11.63;;;9.20;;
54735;SDS011;40632;51.442;11.936;2022-08-19T12:06:47;10.73;;;9.02;;
54735;SDS011;40632;51.442;11.936;2022-08-19T12:09:16;10.63;;;9.50;;
54735;SDS011;40632;51.442;11.936;2022-08-19T12:11:41;9.73;;;8.23;;
54735;SDS011;40632;51.442;11.936;2022-08-19T12:14:09;10.55;;;8.45;;
54735;SDS011;40632;51.442;11.936;2022-08-19T12:16:36;10.25;;;9.00;;
54735;SDS011;40632;51.442;11.936;2022-08-19T12:19:04;10.63;;;9.25;;
54735;SDS011;40632;51.442;11.936;2022-08-19T12:21:30;10.18;;;9.02;;
54735;SDS011;40632;51.442;11.936;2022-08-19T12:23:57;10.73;;;9.57;;
54735;SDS011;40632;51.442;11.936;2022-08-19T12:26:27;11.98;;;8.57;;
54735;SDS011;40632;51.442;11.936;2022-08-19T12:28:54;12.25;;;9.90;;
54735;SDS011;40632;51.442;11.936;2022-08-19T12:31:20;11.55;;;10.18;;
54735;SDS011;40632;51.442;11.936;2022-08-19T12:33:46;11.52;;;9.63;;
54735;SDS011;40632;51.442;11.936;2022-08-19T12:36:12;12.68;;;10.80;;
54735;SDS011;40632;51.442;11.936;2022-08-19T12:38:39;11.82;;;10.35;;
54735;SDS011;40632;51.442;11.936;2022-08-19T12:41:06;12.98;;;10.40;;
54735;SDS011;40632;51.442;11.936;2022-08-19T12:43:37;14.38;;;11.50;;
54735;SDS011;40632;51.442;11.936;2022-08-19T12:46:03;17.80;;;12.80;;
54735;SDS011;40632;51.442;11.936;2022-08-19T12:48:31;16.60;;;13.65;;
54735;SDS011;40632;51.442;11.936;2022-08-19T12:50:57;17.40;;;14.52;;
54735;SDS011;40632;51.442;11.936;2022-08-19T12:53:23;16.77;;;13.93;;
54735;SDS011;40632;51.442;11.936;2022-08-19T12:55:54;16.10;;;13.95;;
54735;SDS011;40632;51.442;11.936;2022-08-19T12:58:20;16.35;;;14.48;;
54735;SDS011;40632;51.442;11.936;2022-08-19T13:00:48;17.60;;;15.73;;
54735;SDS011;40632;51.442;11.936;2022-08-19T13:03:14;17.23;;;14.73;;
54735;SDS011;40632;51.442;11.936;2022-08-19T13:05:40;18.20;;;16.25;;
54735;SDS011;40632;51.442;11.936;2022-08-19T13:08:05;17.33;;;15.50;;
54735;SDS011;40632;51.442;11.936;2022-08-19T13:10:31;21.50;;;14.93;;
54735;SDS011;40632;51.442;11.936;2022-08-19T13:12:59;19.25;;;16.25;;
54735;SDS011;40632;51.442;11.936;2022-08-19T13:15:24;18.83;;;15.98;;
54735;SDS011;40632;51.442;11.936;2022-08-19T13:17:53;17.55;;;15.65;;
54735;SDS011;40632;51.442;11.936;2022-08-19T13:20:19;20.38;;;16.48;;
54735;SDS011;40632;51.442;11.936;2022-08-19T13:22:46;20.45;;;16.63;;
54735;SDS011;40632;51.442;11.936;2022-08-19T13:25:12;21.65;;;17.40;;
54735;SDS011;40632;51.442;11.936;2022-08-19T13:27:39;20.45;;;16.67;;
54735;SDS011;40632;51.442;11.936;2022-08-19T13:30:06;20.42;;;18.13;;
54735;SDS011;40632;51.442;11.936;2022-08-19T13:32:34;20.20;;;18.05;;
54735;SDS011;40632;51.442;11.936;2022-08-19T13:35:02;21.55;;;18.10;;
54735;SDS011;40632;51.442;11.936;2022-08-19T13:37:28;18.75;;;16.75;;
54735;SDS011;40632;51.442;11.936;2022-08-19T13:39:54;18.77;;;16.15;;
54735;SDS011;40632;51.442;11.936;2022-08-19T13:42:20;19.08;;;16.88;;
54735;SDS011;40632;51.442;11.936;2022-08-19T13:44:45;21.70;;;17.95;;
54735;SDS011;40632;51.442;11.936;2022-08-19T13:47:11;19.98;;;16.48;;
54735;SDS011;40632;51.442;11.936;2022-08-19T13:49:37;20.27;;;17.52;;
54735;SDS011;40632;51.442;11.936;2022-08-19T13:52:05;18.33;;;16.38;;
54735;SDS011;40632;51.442;11.936;2022-08-19T13:54:31;17.08;;;14.95;;
54735;SDS011;40632;51.442;11.936;2022-08-19T13:56:56;20.15;;;17.42;;
54735;SDS011;40632;51.442;11.936;2022-08-19T13:59:22;20.00;;;16.75;;
54735;SDS011;40632;51.442;11.936;2022-08-19T14:01:48;22.95;;;16.80;;
54735;SDS011;40632;51.442;11.936;2022-08-19T14:04:13;19.45;;;16.85;;
54735;SDS011;40632;51.442;11.936;2022-08-19T14:06:39;17.85;;;16.05;;